createdAt,value
2023-10-25T00:00:20.900Z,98115.47
2023-10-25T00:03:11.858Z,98125.69
2023-10-25T00:05:39.507Z,98119.97
2023-10-25T00:08:06.447Z,98125.38
2023-10-25T00:10:34.545Z,98131.69
2023-10-25T00:13:02.006Z,98135.16
2023-10-25T00:15:32.418Z,98136.66
2023-10-25T00:17:59.467Z,98133.13
2023-10-25T00:20:29.359Z,98145.00
2023-10-25T00:22:56.341Z,98131.81
2023-10-25T00:25:23.883Z,98132.41
2023-10-25T00:27:53.303Z,98142.06
2023-10-25T00:30:20.990Z,98143.50
2023-10-25T00:32:48.597Z,98145.28
2023-10-25T00:35:17.315Z,98159.59
2023-10-25T00:37:44.227Z,98167.94
2023-10-25T00:40:11.815Z,98158.47
2023-10-25T00:42:38.888Z,98157.16
2023-10-25T00:45:06.545Z,98156.56
2023-10-25T00:47:33.569Z,98153.63
2023-10-25T00:50:01.048Z,98150.84
2023-10-25T00:52:29.690Z,98151.03
2023-10-25T00:54:57.466Z,98149.97
2023-10-25T00:57:24.645Z,98156.41
2023-10-25T00:59:52.356Z,98143.66
2023-10-25T01:02:22.201Z,98140.72
2023-10-25T01:04:49.726Z,98146.28
2023-10-25T01:07:17.501Z,98143.50
2023-10-25T01:09:45.168Z,98151.13
2023-10-25T01:12:12.697Z,98149.66
2023-10-25T01:14:42.286Z,98148.78
2023-10-25T01:17:09.276Z,98146.00
2023-10-25T01:19:36.577Z,98145.81
2023-10-25T01:22:03.824Z,98148.03
2023-10-25T01:24:31.126Z,98143.22
2023-10-25T01:26:58.441Z,98143.22
2023-10-25T01:29:25.820Z,98144.50
2023-10-25T01:31:53.353Z,98144.66
2023-10-25T01:34:22.844Z,98153.75
2023-10-25T01:36:50.502Z,98150.41
2023-10-25T01:39:17.849Z,98155.94
2023-10-25T01:41:44.909Z,98160.19
2023-10-25T01:44:12.242Z,98176.28
2023-10-25T01:46:39.285Z,98177.78
2023-10-25T01:49:06.730Z,98186.84
2023-10-25T01:51:33.694Z,98185.22
2023-10-25T01:54:04.085Z,98190.59
2023-10-25T01:56:31.050Z,98193.53
2023-10-25T01:58:58.496Z,98199.28
2023-10-25T02:01:25.619Z,98201.88
2023-10-25T02:03:53.087Z,98204.81
2023-10-25T02:06:20.526Z,98208.19
2023-10-25T02:08:47.951Z,98203.03
2023-10-25T02:11:17.764Z,98200.84
2023-10-25T02:13:44.985Z,98214.31
2023-10-25T02:16:13.518Z,98211.22
2023-10-25T02:18:41.200Z,98215.47
2023-10-25T02:21:08.188Z,98221.75
2023-10-25T02:23:35.467Z,98227.88
2023-10-25T02:26:02.504Z,98231.97
2023-10-25T02:28:29.788Z,98234.44
2023-10-25T02:30:56.729Z,98223.31
2023-10-25T02:33:24.240Z,98231.66
2023-10-25T02:35:53.818Z,98228.88
2023-10-25T02:38:21.661Z,98235.75
2023-10-25T02:40:48.628Z,98241.31
2023-10-25T02:43:18.462Z,98250.94
2023-10-25T02:45:48.047Z,98250.94
2023-10-25T02:48:15.571Z,98255.34
2023-10-25T02:50:42.783Z,98262.72
2023-10-25T02:53:10.027Z,98258.63
2023-10-25T02:55:36.949Z,98260.41
2023-10-25T02:58:04.238Z,98265.56
2023-10-25T03:00:31.482Z,98270.25
2023-10-25T03:02:59.080Z,98271.47
2023-10-25T03:05:26.213Z,98273.09
2023-10-25T03:07:53.470Z,98274.56
2023-10-25T03:10:22.672Z,98274.31
2023-10-25T03:12:50.381Z,98290.28
2023-10-25T03:15:20.262Z,98289.53
2023-10-25T03:17:47.587Z,98285.75
2023-10-25T03:20:14.678Z,98295.56
2023-10-25T03:22:42.060Z,98300.56
2023-10-25T03:25:11.356Z,98294.44
2023-10-25T03:27:39.047Z,98301.63
2023-10-25T03:30:06.451Z,98293.28
2023-10-25T03:32:33.966Z,98299.09
2023-10-25T03:35:01.313Z,98300.56
2023-10-25T03:37:31.142Z,98296.88
2023-10-25T03:39:58.338Z,98299.09
2023-10-25T03:42:28.278Z,98309.47
2023-10-25T03:44:55.339Z,98303.78
2023-10-25T03:47:22.701Z,98307.25
2023-10-25T03:49:53.128Z,98302.84
2023-10-25T03:52:20.551Z,98307.69
2023-10-25T03:54:47.646Z,98317.16
2023-10-25T03:57:14.936Z,98319.44
2023-10-25T03:59:43.179Z,98334.50
2023-10-25T04:02:10.927Z,98339.75
2023-10-25T04:04:40.571Z,98340.88
2023-10-25T04:07:07.866Z,98335.81
2023-10-25T04:09:34.883Z,98339.38
2023-10-25T04:12:02.149Z,98348.44
2023-10-25T04:14:29.268Z,98348.13
2023-10-25T04:16:56.500Z,98348.94
2023-10-25T04:19:23.523Z,98357.44
2023-10-25T04:21:53.114Z,98358.91
2023-10-25T04:24:20.565Z,98358.16
2023-10-25T04:26:48.270Z,98354.72
2023-10-25T04:29:15.278Z,98362.47
2023-10-25T04:31:42.839Z,98358.22
2023-10-25T04:34:09.904Z,98353.06
2023-10-25T04:36:37.316Z,98363.50
2023-10-25T04:39:04.231Z,98353.53
2023-10-25T04:41:33.109Z,98356.34
2023-10-25T04:44:00.147Z,98360.03
2023-10-25T04:46:27.937Z,98362.44
2023-10-25T04:48:54.950Z,98369.78
2023-10-25T04:51:22.432Z,98374.19
2023-10-25T04:53:49.340Z,98378.22
2023-10-25T04:56:22.110Z,98382.31
2023-10-25T04:58:49.357Z,98382.09
2023-10-25T05:01:16.910Z,98394.03
2023-10-25T05:03:47.175Z,98384.75
2023-10-25T05:06:14.830Z,98392.03
2023-10-25T05:08:43.036Z,98391.66
2023-10-25T05:11:14.720Z,98394.91
2023-10-25T05:13:41.868Z,98403.03
2023-10-25T05:16:09.515Z,98400.59
2023-10-25T05:18:38.987Z,98397.97
2023-10-25T05:21:06.404Z,98396.88
2023-10-25T05:23:34.392Z,98401.50
2023-10-25T05:26:02.756Z,98394.44
2023-10-25T05:28:30.619Z,98390.91
2023-10-25T05:31:01.832Z,98394.44
2023-10-25T05:33:29.344Z,98379.25
2023-10-25T05:36:01.267Z,98375.16
2023-10-25T05:38:30.856Z,98388.47
2023-10-25T05:40:59.408Z,98387.72
2023-10-25T05:43:30.159Z,98393.28
2023-10-25T05:45:58.305Z,98393.69
2023-10-25T05:48:25.678Z,98394.03
2023-10-25T05:50:53.176Z,98398.31
2023-10-25T05:53:22.819Z,98402.22
2023-10-25T05:55:50.342Z,98407.19
2023-10-25T05:58:19.943Z,98402.16
2023-10-25T06:00:51.933Z,98408.78
2023-10-25T06:05:52.404Z,98404.88
2023-10-25T06:08:19.830Z,98416.50
2023-10-25T06:10:47.362Z,98428.38
2023-10-25T06:13:14.380Z,98427.06
2023-10-25T06:15:42.016Z,98436.88
2023-10-25T06:18:10.511Z,98437.94
2023-10-25T06:20:37.712Z,98440.72
2023-10-25T06:23:05.114Z,98438.69
2023-10-25T06:25:32.572Z,98437.94
2023-10-25T06:28:00.757Z,98443.66
2023-10-25T06:30:31.411Z,98428.44
2023-10-25T06:33:00.107Z,98429.75
2023-10-25T06:35:27.719Z,98435.31
2023-10-25T06:37:54.963Z,98438.09
2023-10-25T06:40:23.390Z,98441.94
2023-10-25T06:42:50.594Z,98448.59
2023-10-25T06:45:18.058Z,98464.06
2023-10-25T06:47:47.464Z,98466.50
2023-10-25T06:50:15.528Z,98469.22
2023-10-25T06:52:42.911Z,98465.44
2023-10-25T06:55:10.588Z,98475.69
2023-10-25T06:57:40.366Z,98474.59
2023-10-25T07:00:10.293Z,98487.84
2023-10-25T07:02:43.733Z,98476.19
2023-10-25T07:05:12.718Z,98471.06
2023-10-25T07:07:40.784Z,98478.09
2023-10-25T07:10:09.559Z,98472.59
2023-10-25T07:12:36.684Z,98477.09
2023-10-25T07:15:04.153Z,98484.84
2023-10-25T07:17:31.387Z,98486.56
2023-10-25T07:20:00.130Z,98487.66
2023-10-25T07:22:30.017Z,98498.94
2023-10-25T07:24:57.467Z,98486.78
2023-10-25T07:27:24.442Z,98498.31
2023-10-25T07:29:51.748Z,98512.72
2023-10-25T07:32:21.046Z,98505.81
2023-10-25T07:34:48.366Z,98511.56
2023-10-25T07:37:16.459Z,98518.16
2023-10-25T07:39:46.158Z,98519.22
2023-10-25T07:42:13.247Z,98519.41
2023-10-25T07:44:41.035Z,98525.91
2023-10-25T07:47:08.233Z,98518.47
2023-10-25T07:49:36.261Z,98516.34
2023-10-25T07:52:03.774Z,98516.72
2023-10-25T07:54:31.293Z,98523.00
2023-10-25T07:59:28.722Z,98522.75
2023-10-25T08:02:00.085Z,98515.19
2023-10-25T08:04:27.810Z,98517.25
2023-10-25T08:06:54.745Z,98523.63
2023-10-25T08:09:22.463Z,98528.25
2023-10-25T08:11:49.525Z,98522.81
2023-10-25T08:14:16.916Z,98528.84
2023-10-25T08:16:43.903Z,98529.31
2023-10-25T08:19:11.231Z,98536.84
2023-10-25T08:21:38.410Z,98532.56
2023-10-25T08:24:09.136Z,98528.31
2023-10-25T08:26:41.280Z,98531.41
2023-10-25T08:29:09.091Z,98534.63
2023-10-25T08:31:36.501Z,98543.75
2023-10-25T08:34:04.533Z,98540.38
2023-10-25T08:36:34.820Z,98540.22
2023-10-25T08:39:02.129Z,98536.72
2023-10-25T08:41:29.955Z,98552.59
2023-10-25T08:43:59.158Z,98543.03
2023-10-25T08:46:26.229Z,98533.59
2023-10-25T08:48:56.669Z,98543.59
2023-10-25T08:51:23.768Z,98548.59
2023-10-25T08:53:55.721Z,98551.25
2023-10-25T08:56:23.076Z,98555.41
2023-10-25T08:58:50.963Z,98553.13
2023-10-25T09:01:19.305Z,98555.63
2023-10-25T09:03:46.966Z,98563.91
2023-10-25T09:06:26.488Z,98559.91
2023-10-25T09:09:01.049Z,98559.84
2023-10-25T09:11:37.928Z,98569.03
2023-10-25T09:14:05.865Z,98550.72
2023-10-25T09:16:32.886Z,98557.22
2023-10-25T09:19:03.107Z,98567.41
2023-10-25T09:21:30.528Z,98567.63
2023-10-25T09:24:03.559Z,98565.31
2023-10-25T09:27:18.354Z,98559.72
2023-10-25T09:29:45.782Z,98556.63
2023-10-25T09:32:12.889Z,98535.41
2023-10-25T09:34:40.319Z,98541.63
2023-10-25T09:37:09.944Z,98540.91
2023-10-25T09:39:38.341Z,98537.63
2023-10-25T09:42:08.723Z,98540.84
2023-10-25T09:44:38.718Z,98529.81
2023-10-25T09:47:10.798Z,98536.84
2023-10-25T09:49:42.987Z,98535.78
2023-10-25T09:52:29.624Z,98533.44
2023-10-25T09:55:03.722Z,98531.22
2023-10-25T09:57:32.067Z,98539.50
2023-10-25T10:00:00.620Z,98538.38
2023-10-25T10:02:35.422Z,98542.25
2023-10-25T10:05:10.887Z,98537.63
2023-10-25T10:07:55.214Z,98527.16
2023-10-25T10:10:25.569Z,98515.13
2023-10-25T10:12:52.783Z,98514.72
2023-10-25T10:15:25.452Z,98513.19
2023-10-25T10:17:52.889Z,98511.31
2023-10-25T10:20:38.160Z,98510.00
2023-10-25T10:23:06.195Z,98507.78
2023-10-25T10:25:48.812Z,98499.91
2023-10-25T10:28:16.264Z,98507.34
2023-10-25T10:30:43.786Z,98498.41
2023-10-25T10:33:14.631Z,98501.06
2023-10-25T10:35:51.198Z,98495.72
2023-10-25T10:38:18.205Z,98489.72
2023-10-25T10:40:49.972Z,98476.06
2023-10-25T10:43:17.019Z,98485.25
2023-10-25T10:45:45.966Z,98480.22
2023-10-25T10:48:21.560Z,98478.97
2023-10-25T10:50:50.631Z,98468.84
2023-10-25T10:53:17.840Z,98484.75
2023-10-25T10:55:47.285Z,98473.28
2023-10-25T10:58:14.608Z,98476.06
2023-10-25T11:00:46.556Z,98479.22
2023-10-25T11:03:13.985Z,98473.47
2023-10-25T11:05:44.189Z,98467.22
2023-10-25T11:08:15.751Z,98456.91
2023-10-25T11:10:43.444Z,98458.25
2023-10-25T11:13:11.314Z,98450.31
2023-10-25T11:15:41.005Z,98446.66
2023-10-25T11:18:13.716Z,98445.69
2023-10-25T11:20:42.705Z,98439.09
2023-10-25T11:23:10.012Z,98436.88
2023-10-25T11:25:38.588Z,98436.91
2023-10-25T11:28:05.789Z,98428.22
2023-10-25T11:30:36.094Z,98426.63
2023-10-25T11:33:03.704Z,98422.63
2023-10-25T11:35:31.217Z,98422.69
2023-10-25T11:38:00.618Z,98420.38
2023-10-25T11:40:37.153Z,98419.28
2023-10-25T11:43:05.316Z,98413.41
2023-10-25T11:45:33.159Z,98413.41
2023-10-25T11:48:00.320Z,98409.53
2023-10-25T11:50:27.858Z,98407.09
2023-10-25T11:52:54.805Z,98412.56
2023-10-25T11:55:22.171Z,98405.53
2023-10-25T11:57:49.123Z,98411.88
2023-10-25T12:00:16.591Z,98408.19
2023-10-25T12:02:45.187Z,98407.06
2023-10-25T12:05:14.741Z,98406.44
2023-10-25T12:07:42.009Z,98398.56
2023-10-25T12:10:09.592Z,98396.00
2023-10-25T12:12:36.755Z,98386.13
2023-10-25T12:15:04.448Z,98378.09
2023-10-25T12:17:33.564Z,98382.22
2023-10-25T12:20:18.346Z,98371.66
2023-10-25T12:22:50.458Z,98379.84
2023-10-25T12:25:17.815Z,98376.81
2023-10-25T12:27:46.166Z,98367.03
2023-10-25T12:30:13.569Z,98369.50
2023-10-25T12:32:40.648Z,98363.16
2023-10-25T12:35:08.670Z,98354.88
2023-10-25T12:37:35.608Z,98348.91
2023-10-25T12:40:05.518Z,98347.19
2023-10-25T12:42:32.518Z,98335.38
2023-10-25T12:44:59.984Z,98340.63
2023-10-25T12:47:27.027Z,98330.59
2023-10-25T12:49:54.486Z,98342.66
2023-10-25T12:52:25.615Z,98330.97
2023-10-25T12:54:53.572Z,98331.22
2023-10-25T12:57:22.823Z,98320.38
2023-10-25T12:59:53.034Z,98333.19
2023-10-25T13:02:20.107Z,98329.53
2023-10-25T13:04:47.772Z,98326.00
2023-10-25T13:07:15.408Z,98333.19
2023-10-25T13:09:42.800Z,98326.59
2023-10-25T13:12:10.693Z,98328.53
2023-10-25T13:14:38.612Z,98328.06
2023-10-25T13:17:18.928Z,98333.66
2023-10-25T13:19:47.916Z,98322.94
2023-10-25T13:22:15.994Z,98326.63
2023-10-25T13:24:43.680Z,98324.16
2023-10-25T13:27:11.115Z,98326.97
2023-10-25T13:29:42.574Z,98320.97
2023-10-25T13:32:10.017Z,98313.66
2023-10-25T13:34:37.453Z,98311.47
2023-10-25T13:37:04.444Z,98313.41
2023-10-25T13:39:31.976Z,98307.47
2023-10-25T13:41:59.717Z,98302.47
2023-10-25T13:44:26.980Z,98300.38
2023-10-25T13:46:53.974Z,98295.88
2023-10-25T13:49:21.455Z,98294.00
2023-10-25T13:51:48.564Z,98287.03
2023-10-25T13:54:16.153Z,98289.31
2023-10-25T13:56:45.567Z,98284.66
2023-10-25T13:59:13.317Z,98269.06
2023-10-25T14:01:43.524Z,98281.72
2023-10-25T14:04:13.343Z,98274.06
2023-10-25T14:06:42.573Z,98281.59
2023-10-25T14:09:11.285Z,98279.50
2023-10-25T14:11:38.387Z,98277.41
2023-10-25T14:14:05.795Z,98280.66
2023-10-25T14:16:35.193Z,98269.66
2023-10-25T14:19:02.667Z,98270.00
2023-10-25T14:21:31.485Z,98270.50
2023-10-25T14:23:58.980Z,98266.69
2023-10-25T14:26:26.801Z,98262.59
2023-10-25T14:28:54.154Z,98258.91
2023-10-25T14:31:21.338Z,98254.06
2023-10-25T14:33:48.789Z,98251.41
2023-10-25T14:36:15.761Z,98251.88
2023-10-25T14:38:43.564Z,98247.13
2023-10-25T14:41:10.730Z,98252.72
2023-10-25T14:43:38.962Z,98255.84
2023-10-25T14:46:13.056Z,98241.25
2023-10-25T14:48:40.664Z,98251.72
2023-10-25T14:51:14.974Z,98238.81
2023-10-25T14:53:42.806Z,98243.19
2023-10-25T14:56:10.458Z,98237.00
2023-10-25T14:58:40.058Z,98243.56
2023-10-25T15:01:08.316Z,98244.78
2023-10-25T15:03:35.936Z,98237.34
2023-10-25T15:06:03.063Z,98231.22
2023-10-25T15:08:30.425Z,98222.38
2023-10-25T15:11:01.196Z,98216.81
2023-10-25T15:13:30.470Z,98211.44
2023-10-25T15:16:03.289Z,98206.84
2023-10-25T15:18:32.981Z,98201.66
2023-10-25T15:21:00.202Z,98212.84
2023-10-25T15:23:27.618Z,98181.78
2023-10-25T15:26:02.914Z,98197.72
2023-10-25T15:28:30.208Z,98193.50
2023-10-25T15:30:57.187Z,98185.28
2023-10-25T15:33:25.754Z,98179.44
2023-10-25T15:35:59.217Z,98180.06
2023-10-25T15:38:26.624Z,98166.75
2023-10-25T15:41:15.498Z,98157.47
2023-10-25T15:43:43.462Z,98150.19
2023-10-25T15:46:13.160Z,98156.53
2023-10-25T15:48:45.310Z,98149.94
2023-10-25T15:51:15.404Z,98152.00
2023-10-25T15:53:46.426Z,98150.97
2023-10-25T15:56:17.038Z,98147.75
2023-10-25T15:58:45.388Z,98139.56
2023-10-25T16:01:13.453Z,98143.06
2023-10-25T16:03:42.217Z,98134.09
2023-10-25T16:06:10.588Z,98132.06
2023-10-25T16:08:41.019Z,98128.06
2023-10-25T16:11:11.957Z,98124.53
2023-10-25T16:13:39.382Z,98128.63
2023-10-25T16:16:08.252Z,98118.22
2023-10-25T16:18:36.860Z,98121.00
2023-10-25T16:21:08.277Z,98114.41
2023-10-25T16:23:43.024Z,98121.25
2023-10-25T16:26:10.611Z,98122.88
2023-10-25T16:28:43.664Z,98119.34
2023-10-25T16:31:13.381Z,98124.91
2023-10-25T16:33:42.297Z,98118.31
2023-10-25T16:36:12.636Z,98114.47
2023-10-25T16:38:42.637Z,98116.81
2023-10-25T16:41:11.254Z,98113.72
2023-10-25T16:43:41.538Z,98112.53
2023-10-25T16:46:16.222Z,98110.75
2023-10-25T16:48:47.492Z,98112.16
2023-10-25T16:51:16.201Z,98108.00
2023-10-25T16:53:44.951Z,98103.00
2023-10-25T16:56:13.296Z,98105.56
2023-10-25T16:58:43.811Z,98094.94
2023-10-25T17:01:13.243Z,98097.41
2023-10-25T17:03:42.325Z,98088.34
2023-10-25T17:06:12.880Z,98097.38
2023-10-25T17:08:42.121Z,98091.91
2023-10-25T17:11:10.469Z,98093.38
2023-10-25T17:13:39.568Z,98088.66
2023-10-25T17:16:09.172Z,98096.69
2023-10-25T17:18:40.751Z,98088.72
2023-10-25T17:21:15.187Z,98087.19
2023-10-25T17:23:44.501Z,98084.91
2023-10-25T17:26:12.841Z,98080.00
2023-10-25T17:28:41.607Z,98081.50
2023-10-25T17:31:10.305Z,98074.88
2023-10-25T17:33:38.924Z,98071.69
2023-10-25T17:36:08.450Z,98067.34
2023-10-25T17:38:39.090Z,98071.59
2023-10-25T17:41:11.397Z,98066.94
2023-10-25T17:43:39.177Z,98064.63
2023-10-25T17:46:11.902Z,98063.63
2023-10-25T17:48:41.245Z,98060.59
2023-10-25T17:51:13.060Z,98055.53
2023-10-25T17:53:41.859Z,98052.34
2023-10-25T17:56:11.697Z,98055.56
2023-10-25T17:58:40.211Z,98054.97
2023-10-25T18:01:07.740Z,98055.88
2023-10-25T18:03:36.104Z,98038.78
2023-10-25T18:06:09.562Z,98039.09
2023-10-25T18:08:40.625Z,98031.47
2023-10-25T18:11:09.682Z,98032.53
2023-10-25T18:13:50.450Z,98036.34
2023-10-25T18:16:25.708Z,98022.78
2023-10-25T18:18:53.363Z,98025.41
2023-10-25T18:21:23.503Z,98032.25
2023-10-25T18:23:54.710Z,98030.06
2023-10-25T18:26:22.831Z,98029.63
2023-10-25T18:28:51.457Z,98020.16
2023-10-25T18:31:59.360Z,98008.72
2023-10-25T18:34:09.056Z,98009.03
2023-10-25T18:36:37.025Z,97993.06
2023-10-25T18:39:05.773Z,97986.91
2023-10-25T18:41:34.269Z,97993.97
2023-10-25T18:44:04.005Z,97984.28
2023-10-25T18:46:32.311Z,97985.19
2023-10-25T18:49:02.222Z,97973.75
2023-10-25T18:51:35.294Z,97973.91
2023-10-25T18:54:04.566Z,97976.25
2023-10-25T18:56:39.155Z,97982.72
2023-10-25T18:59:09.647Z,97986.06
2023-10-25T19:01:41.400Z,98003.06
2023-10-25T19:04:12.821Z,98005.28
2023-10-25T19:06:48.809Z,98005.09
2023-10-25T19:09:23.253Z,98018.44
2023-10-25T19:11:52.391Z,98018.00
2023-10-25T19:14:23.255Z,98020.09
2023-10-25T19:16:51.318Z,98025.66
2023-10-25T19:19:22.904Z,98019.66
2023-10-25T19:21:52.575Z,98025.81
2023-10-25T19:24:22.829Z,98024.47
2023-10-25T19:26:56.296Z,98027.25
2023-10-25T19:29:33.494Z,98028.44
2023-10-25T19:32:08.286Z,98035.44
2023-10-25T19:34:38.833Z,98031.22
2023-10-25T19:37:06.910Z,98029.13
2023-10-25T19:39:41.953Z,98027.69
2023-10-25T19:42:09.962Z,98020.09
2023-10-25T19:44:38.826Z,98012.88
2023-10-25T19:47:10.030Z,98005.09
2023-10-25T19:49:40.689Z,97991.94
2023-10-25T19:52:10.249Z,97986.13
2023-10-25T19:54:42.555Z,97978.66
2023-10-25T19:57:14.502Z,97973.63
2023-10-25T19:59:51.748Z,97979.03
2023-10-25T20:02:22.151Z,97974.06
2023-10-25T20:04:54.017Z,97976.84
2023-10-25T20:07:23.319Z,97966.59
2023-10-25T20:09:54.773Z,97971.16
2023-10-25T20:12:32.272Z,97953.00
2023-10-25T20:15:06.661Z,97954.16
2023-10-25T20:17:35.566Z,97950.50
2023-10-25T20:20:10.667Z,97939.53
2023-10-25T20:22:39.030Z,97938.78
2023-10-25T20:25:08.098Z,97936.91
2023-10-25T20:27:36.726Z,97939.28
2023-10-25T20:30:06.172Z,97958.16
2023-10-25T20:32:37.062Z,97955.22
2023-10-25T20:35:06.907Z,97951.84
2023-10-25T20:37:34.951Z,97947.19
2023-10-25T20:40:04.479Z,97939.84
2023-10-25T20:42:32.815Z,97940.47
2023-10-25T20:45:01.286Z,97939.00
2023-10-25T20:47:30.729Z,97934.31
2023-10-25T20:49:59.968Z,97938.72
2023-10-25T20:52:27.957Z,97933.59
2023-10-25T20:54:57.552Z,97938.72
2023-10-25T20:57:24.735Z,97956.00
2023-10-25T20:59:54.124Z,97949.25
2023-10-25T21:02:21.326Z,97950.28
2023-10-25T21:04:49.165Z,97953.94
2023-10-25T21:07:17.351Z,97943.25
2023-10-25T21:09:45.854Z,97944.28
2023-10-25T21:12:13.393Z,97935.19
2023-10-25T21:14:40.883Z,97943.41
2023-10-25T21:17:10.095Z,97944.72
2023-10-25T21:19:37.395Z,97939.00
2023-10-25T21:22:04.510Z,97947.50
2023-10-25T21:24:31.731Z,97941.94
2023-10-25T21:26:58.804Z,97946.91
2023-10-25T21:29:26.088Z,97935.63
2023-10-25T21:31:53.131Z,97933.75
2023-10-25T21:34:20.428Z,97925.53
2023-10-25T21:36:47.437Z,97927.00
2023-10-25T21:39:14.830Z,97918.50
2023-10-25T21:41:41.983Z,97916.31
2023-10-25T21:44:09.527Z,97920.13
2023-10-25T21:46:36.518Z,97906.94
2023-10-25T21:49:04.364Z,97908.25
2023-10-25T21:51:31.619Z,97914.56
2023-10-25T21:53:58.893Z,97912.38
2023-10-25T21:56:28.444Z,97914.41
2023-10-25T21:59:49.021Z,97913.09
2023-10-25T22:01:44.992Z,97906.06
2023-10-25T22:04:12.381Z,97903.28
2023-10-25T22:06:39.300Z,97901.81
2023-10-25T22:09:13.588Z,97896.22
2023-10-25T22:11:43.904Z,97887.31
2023-10-25T22:14:11.380Z,97874.28
2023-10-25T22:16:39.994Z,97873.81
2023-10-25T22:19:08.295Z,97867.41
2023-10-25T22:21:36.388Z,97859.63
2023-10-25T22:24:04.486Z,97861.53
2023-10-25T22:26:31.566Z,97874.28
2023-10-25T22:29:15.486Z,97876.47
2023-10-25T22:31:43.597Z,97876.19
2023-10-25T22:34:13.080Z,97873.53
2023-10-25T22:36:43.595Z,97872.06
2023-10-25T22:39:11.181Z,97871.19
2023-10-25T22:41:38.519Z,97866.38
2023-10-25T22:44:06.282Z,97870.47
2023-10-25T22:46:35.389Z,97862.84
2023-10-25T22:49:02.845Z,97863.44
2023-10-25T22:51:32.160Z,97865.78
2023-10-25T22:53:59.519Z,97866.38
2023-10-25T22:56:26.793Z,97867.25
2023-10-25T22:58:54.003Z,97862.84
2023-10-25T23:01:23.513Z,97858.59
2023-10-25T23:03:50.841Z,97862.84
2023-10-25T23:06:18.125Z,97864.75
2023-10-25T23:08:45.798Z,97869.75
2023-10-25T23:11:12.804Z,97876.03
2023-10-25T23:13:40.083Z,97870.47
2023-10-25T23:16:13.010Z,97870.63
2023-10-25T23:18:40.427Z,97875.31
2023-10-25T23:21:10.592Z,97873.84
2023-10-25T23:23:37.943Z,97877.34
2023-10-25T23:26:07.820Z,97871.50
2023-10-25T23:28:35.751Z,97877.78
2023-10-25T23:31:03.815Z,97875.75
2023-10-25T23:33:33.807Z,97880.72
2023-10-25T23:36:01.767Z,97873.13
2023-10-25T23:38:29.806Z,97871.06
2023-10-25T23:40:57.066Z,97862.56
2023-10-25T23:43:26.973Z,97855.69
2023-10-25T23:45:54.054Z,97865.94
2023-10-25T23:48:21.605Z,97861.97
2023-10-25T23:50:51.237Z,97861.25
2023-10-25T23:53:18.616Z,97862.56
2023-10-25T23:55:45.679Z,97868.84
2023-10-25T23:58:13.030Z,97877.34
